Weather observations for the past three days for
La Porte Municipal Airport
Imperial (Metric)
Date Time (cdt) Wind (mph) Vis. (mi.) Weather Sky Cond. Temperature (ºF) Relative Humidity Wind Chill (°F) Heat Index (°F) Pressure Precipitation (in)
Air Dwpt 6 hour altimeter (in) sea level (mb) 1 hr 3 hr 6 hr
Max. Min.
09 04:15 Calm 0.50 Fog SCT004 OVC010 72.7 72.1 98% 29.81 0.0
09 03:55 E 3 1.00 Fog/Mist OVC008 73 72.5 98% 29.81 0.0
09 03:35 Calm 2.00 Fog/Mist OVC008 72.9 72.3 98% 29.81 0.0
09 03:15 SE 3 0.75 Fog/Mist OVC008 72 71.4 98% 29.81 0.0
09 02:55 Calm 0.75 Fog/Mist BKN006 OVC011 72.7 72.1 98% 29.83 0.0
09 02:35 Calm 1.00 Fog/Mist OVC006 73.8 73.2 98% 29.83 0.0
09 02:15 Calm 1.50 Fog/Mist BKN008 OVC014 73.9 73.2 98% 29.83 0.0
09 01:55 E 3 4.00 Fog/Mist SCT009 BKN012 BKN017 73.2 72.3 97% 29.83 0.0
09 01:35 Calm 7.00 Mostly Cloudy BKN011 BKN014 74.7 73.8 97% 29.83 0.0
09 01:15 SE 5 7.00 Mostly Cloudy SCT008 SCT013 BKN030 74.7 73.6 96% 29.83 0.0
09 00:55 SE 5 7.00 Overcast BKN008 OVC020 75 73.9 75.4 74.1 96% 73 29.84 0.0
09 00:35 SE 7 7.00 Overcast OVC008 75.4 74.3 96% 74 29.84 0.0
09 00:15 E 7 7.00 Overcast SCT004 BKN010 OVC016 75.4 74.3 96% 74 29.84 0.0
08 23:55 SE 7 7.00 Overcast OVC006 75.4 74.1 96% 74 29.85 0.0
08 23:35 SE 7 7.00 Overcast OVC006 75 73.6 95% 73 29.85 0.0
08 23:15 SE 6 7.00 Overcast OVC006 74.8 73.4 95% 29.85 0.0
08 22:55 E 8 7.00 Overcast OVC006 74.7 73.2 95% 29.83 0.0
08 22:35 E 7 7.00 Overcast BKN006 OVC009 74.7 73 95% 29.84 0.0
08 22:15 E 8 10.00 Overcast BKN006 OVC010 74.5 72.7 94% 29.83 0.0
08 21:55 E 6 10.00 Overcast OVC006 74.5 72.7 94% 29.83 0.0
08 21:35 E 7 10.00 Overcast OVC006 74.5 72.7 94% 29.82 0.0
08 20:55 E 7 10.00 Overcast OVC008 74.5 72.1 92% 29.81 0.0
08 20:35 E 8 10.00 Overcast OVC008 74.3 71.8 92% 29.82 0.0
08 20:15 E 9 10.00 Overcast OVC008 74.5 71.8 91% 29.81 0.0
08 19:55 E 8 10.00 Overcast OVC008 74.3 71.4 91% 29.81 0.0
08 19:35 E 6 10.00 Overcast OVC008 74.3 71.2 90% 29.81 0.0
08 19:15 E 9 10.00 Overcast OVC008 74.3 71.2 90% 29.81 0.0
08 18:55 E 10 10.00 Overcast OVC008 74.5 71.2 75.6 67.5 90% 29.82 0.0
08 18:35 SE 8 10.00 Overcast OVC008 74.3 71.4 91% 29.83 0.0
08 18:15 SE 9 10.00 Overcast OVC010 74.5 71.2 90% 29.82 0.0
08 17:55 E 9 10.00 Overcast OVC010 74.8 70.9 88% 29.81 0.0
08 17:35 SE 6 10.00 Overcast OVC010 74.7 70.7 88% 29.81 0.0
08 17:15 E 7 10.00 Overcast OVC010 74.1 70.2 88% 29.82 0.0
08 16:55 E 8 7.00 Overcast OVC008 73.8 70 88% 29.83 0.0
08 16:35 E 8 7.00 Overcast OVC008 73.6 70 89% 29.83 0.0
08 16:15 SE 7 10.00 Overcast OVC008 73.6 70 89% 29.83 0.0
08 15:55 SE 7 10.00 Overcast OVC008 73.8 70.3 89% 29.83 0.0
08 15:35 E 6 10.00 Overcast OVC008 73.6 69.8 88% 29.83 0.0
08 15:15 E 6 10.00 Overcast OVC008 73.2 69.8 89% 29.84 0.0
08 14:55 E 7 10.00 Overcast OVC008 72 69.1 91% 29.86 0.0
08 14:35 E 5 10.00 Overcast OVC006 71.1 68.7 92% 29.86 0.0
08 14:15 E 8 10.00 Overcast OVC006 71.2 69.1 93% 29.86 0.0
08 13:55 E 8 10.00 Overcast OVC004 69.4 68.2 96% 29.85 0.0
08 13:35 E 8 10.00 Overcast BKN004 OVC014 68.2 67.1 96% 29.87 0.0
08 13:15 E 8 3.50 Fog/Mist BKN006 OVC014 67.8 66.7 96% 29.88 0.0
08 12:35 NE 7 2.50 Light Drizzle Fog/Mist BKN006 OVC010 67.3 66 96% 29.9 0.0
08 12:15 E 9 5.00 Light Rain Fog/Mist OVC008 68 66.6 95% 29.89 0.0
08 11:55 NE 7 4.00 Light Drizzle Fog/Mist OVC006 67.6 66 95% 29.91 0.0
08 11:35 E 6 7.00 Overcast OVC008 68 65.7 92% 29.92 0.0
08 10:55 E 7 7.00 Fog/Mist OVC008 67.8 65.7 93% 29.93 0.0
08 10:35 N 9 10.00 Overcast OVC008 66.9 64.6 92% 29.93 0.0
08 10:15 N 8 10.00 Overcast OVC008 67.6 65.1 92% 29.93 0.0
08 09:55 NE 7 10.00 Overcast OVC010 67.1 64.9 93% 29.93 0.0
08 09:35 N 7 7.00 Light Rain Fog/Mist OVC008 66.9 64.8 93% 29.94 0.0
08 09:15 N 5 7.00 Overcast OVC008 67.5 65.1 92% 29.94 0.0
08 08:35 E 5 7.00 Overcast OVC008 67.6 65.1 92% 29.92 0.0
08 08:15 NE 5 7.00 Overcast OVC008 67.5 65.1 92% 29.93 0.0
08 07:55 E 7 10.00 Overcast OVC010 67.3 64.9 92% 29.92 0.0
08 07:35 N 5 10.00 Overcast OVC010 67.5 64.2 89% 29.93 0.0
08 07:15 NE 5 10.00 Overcast OVC008 67.3 64.9 92% 29.92 0.0
08 06:55 NE 7 10.00 Overcast OVC008 66.9 64.9 71.6 66.6 93% 29.92 0.0
08 06:35 E 6 10.00 Overcast OVC008 67.3 65.3 93% 29.92 0.0
08 06:15 NE 5 10.00 Overcast OVC006 66.7 65.1 95% 29.93 0.0
08 05:55 NE 9 10.00 Overcast BKN006 OVC011 66.6 65.3 96% 29.91 0.0
08 05:35 E 7 10.00 Overcast SCT004 OVC013 66.7 65.7 96% 29.9 0.0
08 05:15 E 9 7.00 Overcast BKN004 OVC015 66.7 65.7 96% 29.9 0.0
08 04:55 E 6 5.00 Fog/Mist BKN004 BKN008 OVC013 67.5 66.4 96% 29.91 0.0
08 04:35 NE 6 4.00 Fog/Mist OVC011 67.6 66.4 96% 29.92 0.0
08 04:15 NE 7 3.00 Fog/Mist OVC011 68.4 66.7 95% 29.92 0.0
08 03:55 NE 7 5.00 Fog/Mist OVC011 69.1 66.4 91% 29.92 0.0
08 03:35 NE 8 7.00 Overcast OVC013 70.9 66.9 87% 29.92 0.0
08 03:15 NE 6 10.00 Overcast OVC015 71.1 66 84% 29.91 0.0
08 02:55 NE 5 10.00 Overcast OVC017 70.9 65.7 84% 29.91 0.0
08 02:35 E 5 10.00 Overcast OVC019 71.1 65.7 83% 29.91 0.0
08 02:15 E 5 10.00 Overcast BKN020 OVC025 71.2 65.5 82% 29.92 0.0
08 01:55 NE 8 10.00 Overcast SCT018 OVC025 71.2 64.9 81% 29.91 0.0
08 01:35 E 6 10.00 Overcast BKN018 OVC025 71.2 64.9 81% 29.92 0.0
08 01:15 NE 3 10.00 Overcast OVC018 71.6 64.6 79% 29.94 0.0
08 00:55 NE 6 10.00 Overcast SCT018 OVC026 71.4 64.6 77.2 71.1 79% 29.93 0.0
08 00:35 NE 7 10.00 Mostly Cloudy BKN026 71.2 65.3 82% 29.92 0.0
08 00:15 E 6 10.00 Fair CLR 72 65.3 80% 29.92 0.0
07 23:55 E 9 10.00 Fair CLR 72.3 65.1 78% 29.92 0.0
07 23:35 E 9 10.00 Fair CLR 72.5 64.4 76% 29.92 0.0
07 23:15 E 9 10.00 Fair CLR 72.7 64.2 75% 29.93 0.0
07 22:55 E 6 10.00 Fair CLR 72.9 64.4 75% 29.96 0.0
07 22:35 E 7 10.00 Partly Cloudy SCT050 73.8 65.5 75% 29.95 0.0
07 22:15 NE 5 10.00 Mostly Cloudy BKN050 73.4 66.2 78% 29.96 0.0
07 21:55 E 6 10.00 Mostly Cloudy BKN050 73.9 65.8 76% 29.94 0.0
07 21:35 E 7 10.00 Mostly Cloudy BKN050 73.9 65.7 75% 29.94 0.0
07 21:15 E 7 10.00 Overcast SCT041 OVC050 74.7 65.7 74% 29.94 0.0
07 20:55 E 8 10.00 Overcast BKN036 BKN044 OVC050 75.6 64.8 69% 77 29.94 0.0
07 20:35 NE 7 10.00 Overcast OVC034 75.6 64.9 70% 77 29.94 0.0
07 20:15 NE 6 10.00 Overcast OVC032 75.6 64.8 69% 77 29.94 0.0
07 19:55 NE 9 10.00 Overcast OVC032 75.7 64.8 69% 77 29.93 0.0
07 19:35 NE 9 10.00 Overcast OVC032 76.1 65.5 70% 78 29.93 0.0
07 19:15 NE 8 10.00 Overcast OVC032 76.5 66.2 71% 78 29.94 0.0
07 18:55 E 7 10.00 Mostly Cloudy BKN032 77.4 66.9 80.2 69.6 70% 79 29.93 0.0
07 18:35 E 6 10.00 Partly Cloudy SCT032 77 66.9 71% 79 29.92 0.0
07 18:15 NE 10 10.00 Overcast OVC030 78.3 66.7 68% 80 29.92 0.0
07 17:55 NE 5 10.00 Mostly Cloudy BKN030 BKN040 77.7 66.4 68% 80 29.93 0.0
07 17:35 N 7 10.00 Fair CLR 78.4 66.7 67% 80 29.92 0.0
07 17:15 NE 6 10.00 Fair CLR 79 66.7 66% 81 29.93 0.0
07 16:55 NE 7 10.00 Fair CLR 78.8 66.7 67% 81 29.92 0.0
07 16:35 E 8 10.00 Partly Cloudy SCT046 79.9 66.6 64% 82 29.93 0.0
07 16:15 NE 8 10.00 Overcast OVC046 78.3 65.8 66% 80 29.93 0.0
07 15:55 N 9 10.00 Overcast SCT027 OVC046 76.8 66 69% 79 29.94 0.0
07 15:35 N 9 10.00 Overcast BKN029 OVC046 76.8 65.8 69% 79 29.95 0.0
07 15:15 N 8 10.00 Overcast BKN029 OVC038 75.6 64.9 70% 77 29.96 0.0
07 14:55 N 6 10.00 Overcast OVC038 74.7 64.6 71% 29.96 0.0
07 14:35 N 8 10.00 Overcast SCT029 OVC036 75.4 64.8 70% 77 29.96 0.0
07 14:15 N 6 10.00 Overcast SCT029 OVC036 74.1 63.7 70% 29.97 0.0
07 13:55 NE 8 10.00 Overcast OVC036 73.9 63.5 70% 29.98 0.0
07 13:35 N 9 10.00 Overcast OVC036 73.2 63 70% 29.98 0.0
07 13:15 N 9 10.00 Overcast OVC034 71.1 62.4 74% 29.99 0.0
07 12:55 N 7 10.00 Overcast OVC034 69.8 61.5 70.3 63.3 75% 30 0.0
07 12:35 N 8 10.00 Overcast OVC032 68.5 61 77% 30 0.0
07 12:15 N 9 10.00 Overcast SCT015 OVC032 67.5 60.3 78% 30.01 0.0
07 11:55 N 12 10.00 Overcast SCT015 SCT026 OVC030 66.7 60.1 79% 30 0.0
07 11:35 N 9 10.00 Overcast BKN013 OVC026 65.1 59.4 82% 30 0.0
07 11:15 N 10 10.00 Overcast OVC013 64.9 59.5 83% 30.01 0.0
07 10:55 N 9 G 16 10.00 Overcast OVC013 64.2 59.2 84% 30.01 0.0
07 10:35 N 12 10.00 Overcast OVC013 63.9 59 84% 30.01 0.0
07 10:15 N 9 10.00 Overcast OVC013 63.9 59 84% 30.01 0.0
07 09:55 NE 8 10.00 Overcast OVC011 63.5 59.2 86% 30 0.0
07 09:35 N 9 10.00 Overcast OVC011 64.2 59.7 85% 30 0.0
07 09:15 N 13 G 17 10.00 Overcast OVC011 63.9 59.4 85% 29.99 0.0
07 08:55 N 9 10.00 Overcast OVC011 63.9 59.9 87% 30 0.0
07 08:35 N 10 10.00 Overcast OVC011 64 59.5 85% 30.01 0.0
07 08:15 N 8 10.00 Overcast OVC011 64 60.1 87% 30 0.0
07 07:55 N 14 10.00 Overcast OVC011 64.2 59.9 86% 29.99 0.0
07 07:35 N 10 10.00 Overcast OVC013 64.8 60.4 86% 29.98 0.0
07 07:15 N 9 10.00 Overcast OVC017 65.5 60.8 85% 29.97 0.0
07 06:55 N 12 10.00 Overcast OVC017 65.5 60.8 72.7 65.3 85% 29.96 0.0
07 06:35 N 8 10.00 Overcast OVC015 65.7 61.5 87% 29.94 0.0
07 06:15 N 9 10.00 Overcast OVC015 66.2 61.9 86% 29.94 0.0
07 05:55 N 9 10.00 Overcast OVC013 66.7 62.4 86% 29.94 0.0
07 05:35 N 7 10.00 Overcast OVC013 67.1 62.8 86% 29.94 0.0
07 05:15 N 8 10.00 Overcast OVC011 67.5 63.5 87% 29.92 0.0
07 04:55 N 13 10.00 Overcast OVC011 67.6 63.3 86% 29.92 0.0
07 04:35 N 7 10.00 Overcast OVC011 68.2 64 87% 29.92 0.0
07 04:15 N 12 G 18 10.00 Overcast OVC013 68.4 64.2 87% 29.92 0.0
07 03:55 N 8 G 20 10.00 Overcast OVC013 68.7 64.4 86% 29.91 0.0
07 03:35 N 9 10.00 Overcast OVC013 68.9 64.6 86% 29.9 0.0
07 03:15 N 13 10.00 Overcast OVC013 69.8 65.1 85% 29.91 0.0
07 02:55 N 10 10.00 Overcast OVC013 70.3 65.7 85% 29.9 0.0
07 02:15 N 10 10.00 Overcast OVC013 71.2 66.9 86% 29.91 0.0
07 01:55 N 12 10.00 Overcast OVC013 71.6 67.1 86% 29.91 0.0
07 01:35 N 10 10.00 Overcast OVC013 72 67.3 85% 29.91 0.0
07 01:15 N 7 10.00 Overcast OVC013 72.5 67.8 85% 29.91 0.0
07 00:55 N 10 10.00 Overcast OVC013 72.7 68 81.5 72.7 85% 29.9 0.0
07 00:35 N 10 G 17 10.00 Overcast OVC013 72.9 68 85% 29.9 0.0
07 00:15 N 9 10.00 Overcast OVC013 73 68.9 87% 29.9 0.0
06 23:55 N 9 10.00 Overcast OVC013 73.6 69.6 87% 29.9 0.0
06 23:35 N 9 10.00 Overcast OVC013 74.5 70.5 88% 29.91 0.0
06 22:55 NW 8 10.00 Overcast OVC014 77.4 73.6 88% 79 29.89 0.0
06 22:15 SW 6 10.00 Overcast OVC014 78.6 75.4 90% 82 29.87 0.0
06 21:55 S 5 10.00 Mostly Cloudy BKN012 BKN026 78.8 75.6 90% 82 29.85 0.0
06 21:35 S 3 10.00 Partly Cloudy SCT080 SCT090 78.4 75.2 90% 82 29.85 0.0
06 21:15 SW 3 10.00 Mostly Cloudy SCT080 BKN090 79 75.2 88% 83 29.84 0.0
06 20:55 SW 5 10.00 Mostly Cloudy BKN080 BKN090 79 75.2 88% 83 29.83 0.0
06 20:35 S 5 10.00 Mostly Cloudy BKN080 BKN090 79.3 75.6 88% 84 29.82 0.0
06 20:15 S 6 10.00 Partly Cloudy SCT080 79.7 75.4 87% 84 29.82 0.0
06 19:55 S 9 10.00 Partly Cloudy SCT017 SCT080 SCT090 79.9 75.2 86% 85 29.81 0.0
06 19:35 S 8 10.00 Overcast SCT017 BKN080 OVC090 80.6 75.6 85% 86 29.8 0.0
06 19:15 S 8 10.00 Partly Cloudy SCT017 SCT027 SCT085 81 75.2 83% 87 29.8 0.0
06 18:55 S 7 7.00 Partly Cloudy SCT018 81.5 75.2 84.9 79.3 81% 88 29.8 0.0 0.01
06 18:35 S 9 7.00 Partly Cloudy SCT018 SCT032 SCT095 81.9 75.2 80% 89 29.8 0.0
06 17:55 S 10 10.00 Partly Cloudy SCT020 SCT032 SCT085 82 75 79% 89 29.79 0.0 0.01
06 17:35 S 12 10.00 Overcast BKN020 BKN025 OVC085 82 75.2 80% 89 29.78 0.0 0.01
06 17:15 SE 10 10.00 Overcast OVC020 82 75.6 81% 89 29.79 0.0
06 16:35 S 10 7.00 Mostly Cloudy SCT018 SCT023 BKN034 84.6 75.4 74% 93 29.79 0.0
06 16:15 SE 12 10.00 Overcast BKN018 BKN027 OVC035 83.3 75.6 78% 91 29.79 0.0
06 15:55 SE 12 10.00 Mostly Cloudy BKN015 BKN021 BKN036 84.6 76.5 77% 94 29.79 0.0
06 15:35 SE 14 10.00 Overcast BKN013 BKN018 OVC027 81.9 75.9 82% 89 29.8 0.0
06 15:15 SE 13 10.00 Mostly Cloudy SCT013 SCT021 BKN025 82.6 76.3 81% 91 29.81 0.0
06 14:55 SE 18 10.00 Mostly Cloudy SCT013 BKN021 BKN026 82.2 76.3 82% 90 29.81 0.0
06 14:35 SE 14 10.00 Overcast SCT013 OVC021 83.1 76.5 80% 92 29.82 0.0
06 14:15 SE 13 10.00 Mostly Cloudy BKN013 BKN021 BKN033 83.1 76.3 80% 92 29.82 0.0
06 13:55 SE 13 5.00 Overcast with Haze BKN015 BKN021 OVC033 82.9 76.3 80% 91 29.83 0.0
06 13:35 SE 15 10.00 Overcast OVC015 81 76.3 86% 87 29.83 0.0
06 13:15 SE 9 10.00 Overcast BKN015 OVC023 80.4 76.5 88% 86 29.84 0.0
06 12:55 SE 10 7.00 Fog/Mist SCT013 BKN018 OVC025 79.7 76.1 81 76.5 89% 85 29.85 0.0
06 12:35 SE 12 10.00 Overcast BKN015 OVC019 80.8 76.6 87% 87 29.85 0.0
06 12:15 E 9 7.00 Overcast BKN010 OVC019 79.7 76.5 90% 85 29.86 0.0
06 11:55 SE 8 7.00 Light Drizzle Fog/Mist BKN010 OVC017 78.6 76.6 94% 82 29.87 0.0
06 11:35 SE 8 7.00 Fog/Mist BKN010 OVC017 77.9 76.1 94% 80 29.86 0.0
06 11:15 E 8 7.00 Overcast OVC010 78.1 75.7 93% 81 29.86 0.0
06 10:55 SE 8 7.00 Fog/Mist OVC010 77.9 75.7 93% 80 29.86 0.0
06 10:35 SE 7 7.00 Overcast OVC008 78.1 75.6 92% 81 29.84 0.0
06 10:15 SE 9 7.00 Overcast OVC008 78.4 75.6 91% 82 29.84 0.0
06 09:55 SE 9 7.00 Overcast OVC008 78.3 75.6 91% 81 29.83 0.0
06 09:35 SE 8 7.00 Overcast OVC008 78.3 75.4 91% 81 29.83 0.0
06 09:15 SE 8 7.00 Overcast OVC010 78.4 75.6 91% 82 29.83 0.0
06 08:55 SE 9 7.00 Overcast OVC008 78.3 75.6 91% 81 29.83 0.0
06 08:35 SE 7 7.00 Fog/Mist OVC008 77.4 75.4 94% 79 29.84 0.0
06 08:15 SE 6 7.00 Fog/Mist OVC008 77.2 75.2 94% 78 29.84 0.0
06 07:55 S 7 7.00 Fog/Mist OVC008 77 75 94% 78 29.84 0.0
06 07:35 S 9 7.00 Fog/Mist BKN008 BKN030 OVC050 76.6 74.8 94% 77 29.83 0.0
06 07:15 S 8 7.00 Fog/Mist OVC007 76.5 74.8 95% 77 29.82 0.0
06 06:55 S 9 7.00 Fog/Mist OVC007 76.5 74.7 77 76.1 94% 77 29.82 0.0
06 06:35 S 9 7.00 Fog/Mist OVC007 76.5 74.7 94% 77 29.81 0.0
06 06:15 SE 6 7.00 Overcast OVC007 76.3 74.7 95% 76 29.8 0.0
06 05:55 S 9 7.00 Overcast OVC007 76.3 74.5 94% 76 29.8 0.0
06 05:35 SE 8 10.00 Overcast OVC009 76.3 74.3 94% 76 29.8 0.0
06 05:15 S 5 10.00 Overcast OVC009 76.3 74.3 94% 76 29.8 0.0
06 04:55 S 5 10.00 Mostly Cloudy BKN009 BKN037 76.3 74.1 93% 76 29.79 0.0
Date Time (cdt) Wind (mph) Vis. (mi.) Weather Sky Cond. Air Dwpt Max. Min. Relative Humidity Wind Chill (°F) Heat Index (°F) altimeter (in) sea level (mb) 1 hr 3 hr 6 hr
6 hour
Temperature (ºF) Pressure Precipitation (in)